• Join FlightAware (Why Join?)
  • Login
  • US Flag 
10:26PM EDT


 

Airport Tracker/Info


-or-


 

Live Flight TrackerFlight Track Log ✈ N137TK ✈ 11-Oct-2013 ✈ KAPF - KCTZ

Flight Track Log - Related Links

Times and Time Zones

All times are in EDT time to prevent confusion due to time zone crossing. See the N137TK flight status page for this flight to view local times or setup timezone preferences in your user account.

Time Position Orientation Groundspeed Altitude Reporting Facility
EDT Latitude Longitude Course Direction KTS MPH feet Rate Location/Type
07:39AM 26.2731 -81.8422 North 184 212 5,500  Level Miami Center
07:40AM 26.3211 -81.8464 356° North 173 199 7,600 1,920 Climbing Miami Center
07:41AM 26.3711 -81.8508 355° North 173 199 9,400 1,800 Climbing Miami Center
07:42AM 26.5465 -81.6362 347° North  Level Estimated
07:42AM 26.4211 -81.8531 358° North 178 205 11,300  Level Miami Center
07:43AM 26.6122 -81.6129 North  Level Estimated
07:43AM 26.4736 -81.8414 11° North 178 205 13,300  Level Miami Center
07:44AM 26.5325 -81.8300 10° North 191 220 14,000 420 Climbing Miami Center
07:45AM 26.6042 -81.8097 14° North 224 258 14,200 1,200 Climbing Miami Center
07:46AM 26.6669 -81.8008 North 235 270 16,400 1,860 Climbing Miami Center
07:47AM 26.7197 -81.7844 16° North 218 251 18,000 1,500 Climbing Miami Center
07:48AM 26.7661 -81.7725 13° North 187 215 19,400 1,320 Climbing Miami Center
07:49AM 26.8144 -81.7606 12° North 174 200 20,700 1,260 Climbing Miami Center
07:50AM 26.8608 -81.7483 13° North 174 200 22,000 1,200 Climbing Miami Center
07:51AM 26.9072 -81.7386 11° North 169 194 23,200 1,140 Climbing Miami Center
07:52AM 26.9533 -81.7267 13° North 163 188 24,300 900 Climbing Miami Center
07:53AM 26.9997 -81.7147 13° North 163 188 25,000 300 Climbing Miami Center
07:54AM 27.0544 -81.7006 13° North 186 214 25,000  Level Miami Center
07:55AM 27.1178 -81.6847 13° North 214 246 25,000  Level Miami Center
07:56AM 27.1892 -81.6689 11° North 230 265 25,000  Level Miami Center
07:57AM 27.2564 -81.6531 12° North 241 277 25,000  Level Miami Center
07:58AM 27.3239 -81.6372 12° North 241 277 25,000  Level Miami Center
07:59AM 27.3850 -81.6208 13° North 241 277 25,000  Level Miami Center
08:00AM 27.4522 -81.6050 12° North 241 277 25,000  Level Miami Center
08:01AM 27.5278 -81.5872 12° North 241 277 25,000  Level Miami Center
08:02AM 27.5953 -81.5689 14° North 241 277 25,000  Level Miami Center
08:03AM 27.6625 -81.5528 12° North 241 277 25,000  Level Miami Center
08:04AM 27.7236 -81.5367 13° North 241 277 25,000  Level Miami Center
08:05AM 27.7931 -81.5231 10° North 241 277 25,000  Level Miami Center
08:06AM 27.8603 -81.5047 14° North 241 277 25,000  Level Miami Center
08:07AM 27.9275 -81.4886 12° North 241 277 25,000  Level Miami Center
08:08AM 27.9950 -81.4725 12° North 241 277 25,000  Level Miami Center
08:09AM 28.0622 -81.4542 14° North 241 277 25,000  Level Miami Center
08:10AM 28.1294 -81.4381 12° North 241 277 25,000  Level Miami Center
08:11AM 28.1969 -81.4219 12° North 241 277 25,000  Level Miami Center
08:12AM 28.2725 -81.4036 12° North 241 277 25,000  Level Miami Center
08:13AM 28.3394 -81.3881 12° North 258 297 25,000  Level Jacksonville Center
08:14AM 28.4058 -81.3703 13° North 258 297 25,000  Level Jacksonville Center
08:15AM 28.4747 -81.3528 13° North 258 297 25,000  Level Jacksonville Center
08:16AM 28.5411 -81.3328 15° North 258 297 25,000  Level Jacksonville Center
08:17AM 28.6033 -81.2942 29° Northeast 253 291 25,000  Level Jacksonville Center
08:18AM 28.6675 -81.2553 28° Northeast 253 291 25,000  Level Jacksonville Center
08:19AM 28.7297 -81.2186 27° Northeast 253 291 25,000  Level Jacksonville Center
08:20AM 28.7939 -81.1939 19° North 253 291 25,000  Level Jacksonville Center
08:21AM 28.8631 -81.2069 351° North 243 280 25,000  Level Jacksonville Center
08:22AM 28.9319 -81.2200 351° North 238 274 25,000  Level Jacksonville Center
08:23AM 28.9992 -81.2356 349° North 238 274 25,000  Level Jacksonville Center
08:24AM 29.0681 -81.2464 352° North 238 274 25,000  Level Jacksonville Center
08:25AM 29.1369 -81.2522 356° North 238 274 25,000  Level Jacksonville Center
08:26AM 29.2061 -81.2606 354° North 243 280 25,000  Level Jacksonville Center
08:27AM 29.2750 -81.2642 357° North 243 280 25,000  Level Jacksonville Center
08:28AM 29.3461 -81.2703 356° North 243 280 25,000  Level Jacksonville Center
08:29AM 29.4169 -81.2786 354° North 248 285 25,000  Level Jacksonville Center
08:30AM 29.4861 -81.2844 356° North 248 285 25,000  Level Jacksonville Center
08:31AM 29.5550 -81.2906 356° North 253 291 25,000  Level Jacksonville Center
08:32AM 29.6239 -81.2967 356° North 253 291 25,000  Level Jacksonville Center
08:33AM 29.6950 -81.3003 357° North 253 291 25,000  Level Jacksonville Center
08:34AM 29.7639 -81.3086 354° North 253 291 25,000  Level Jacksonville Center
08:35AM 29.8331 -81.3147 356° North 253 291 25,000  Level Jacksonville Center
08:36AM 29.9039 -81.3183 357° North 253 291 25,000  Level Jacksonville Center
08:37AM 29.9731 -81.3269 354° North 253 291 25,000  Level Jacksonville Center
08:38AM 30.0503 -81.3303 358° North 253 291 25,000  Level Jacksonville Center
08:39AM 30.1214 -81.3364 356° North 253 291 25,000  Level Jacksonville Center
08:40AM 30.1925 -81.3425 356° North 253 291 25,000  Level Jacksonville Center
08:41AM 30.2614 -81.3511 354° North 253 291 25,000  Level Jacksonville Center
08:42AM 30.3344 -81.3547 358° North 253 291 25,000  Level Jacksonville Center
08:43AM 30.4033 -81.3608 356° North 253 291 25,000  Level Jacksonville Center
08:44AM 30.4744 -81.3669 356° North 253 291 25,000  Level Jacksonville Center
08:45AM 30.5456 -81.3753 354° North 253 291 25,000  Level Jacksonville Center
08:46AM 30.6167 -81.3792 357° North 253 291 25,000  Level Jacksonville Center
08:47AM 30.6856 -81.3878 354° North 253 291 25,000  Level Jacksonville Center
08:48AM 30.7547 -81.3914 357° North 253 291 25,000  Level Jacksonville Center
08:49AM 30.8236 -81.4000 354° North 253 291 25,000  Level Jacksonville Center
08:50AM 30.8925 -81.4061 356° North 253 291 25,000  Level Jacksonville Center
08:51AM 30.9636 -81.4122 356° North 253 291 25,000  Level Jacksonville Center
08:52AM 31.0325 -81.4186 355° North 253 291 25,000  Level Jacksonville Center
08:53AM 31.0994 -81.4247 356° North 253 291 25,000  Level Jacksonville Center
08:54AM 31.1681 -81.3994 17° North 257 296 25,000  Level Jacksonville Center
08:55AM 31.2303 -81.3522 33° Northeast 257 296 25,000  Level Jacksonville Center
08:56AM 31.2922 -81.3000 36° Northeast 257 296 25,000  Level Jacksonville Center
08:57AM 31.3481 -81.2531 36° Northeast 268 308 25,000  Level Jacksonville Center
08:58AM 31.4183 -81.2006 33° Northeast 273 314 25,000  Level Jacksonville Center
08:59AM 31.4742 -81.1583 33° Northeast 268 308 25,000  Level Jacksonville Center
09:00AM 31.5442 -81.1058 33° Northeast 268 308 25,000  Level Jacksonville Center
09:01AM 31.6083 -81.0556 34° Northeast 268 308 25,000  Level Jacksonville Center
09:02AM 31.6619 -81.0131 34° Northeast 268 308 25,000  Level Jacksonville Center
09:03AM 31.7322 -80.9581 34° Northeast 268 308 25,000  Level Jacksonville Center
09:04AM 31.7961 -80.9103 32° Northeast 268 308 25,000  Level Jacksonville Center
09:05AM 31.8581 -80.8625 33° Northeast 268 308 25,000  Level Jacksonville Center
09:06AM 31.9197 -80.8144 33° Northeast 268 308 25,000  Level Jacksonville Center
09:07AM 31.9775 -80.7692 34° Northeast 268 308 25,000  Level Jacksonville Center
09:08AM 32.0456 -80.7136 35° Northeast 268 308 25,000  Level Jacksonville Center
09:09AM 32.1072 -80.6681 32° Northeast 268 308 25,000  Level Jacksonville Center
09:10AM 32.1669 -80.6175 36° Northeast 268 308 25,000  Level Jacksonville Center
09:11AM 32.2286 -80.5669 35° Northeast 258 297 25,000  Level Jacksonville Center
09:12AM 32.2906 -80.5211 32° Northeast 258 297 25,000  Level Jacksonville Center
09:13AM 32.3522 -80.4728 34° Northeast 258 297 25,000  Level Jacksonville Center
09:14AM 32.4158 -80.4242 33° Northeast 263 303 25,000  Level Jacksonville Center
09:15AM 32.4756 -80.3733 36° Northeast 258 297 25,000  Level Jacksonville Center
09:16AM 32.5372 -80.3250 33° Northeast 258 297 25,000  Level Jacksonville Center
09:17AM 32.5989 -80.2764 34° Northeast 258 297 25,000  Level Jacksonville Center
09:18AM 32.6603 -80.2275 34° Northeast 258 297 25,000  Level Jacksonville Center
09:19AM 32.7158 -80.1817 35° Northeast 258 297 25,000  Level Jacksonville Center
09:20AM 32.7772 -80.1303 35° Northeast 258 297 25,000  Level Jacksonville Center
09:21AM 32.8408 -80.0814 33° Northeast 258 297 25,000  Level Jacksonville Center
09:22AM 32.9025 -80.0300 35° Northeast 258 297 25,000  Level Jacksonville Center
09:23AM 32.9658 -79.9808 33° Northeast 258 297 25,000  Level Jacksonville Center
09:24AM 33.0275 -79.9319 34° Northeast 258 297 25,000  Level Jacksonville Center
09:25AM 33.0908 -79.8828 33° Northeast 258 297 25,000  Level Jacksonville Center
09:26AM 33.1544 -79.8358 32° Northeast 258 297 25,000  Level Jacksonville Center
09:27AM 33.2158 -79.7867 34° Northeast 263 303 25,000  Level Jacksonville Center
09:28AM 33.2814 -79.7347 34° Northeast 263 303 25,000  Level Jacksonville Center
09:29AM 33.3428 -79.6853 34° Northeast 263 303 25,000 -540 Level Jacksonville Center
09:30AM 33.4125 -79.6306 33° Northeast 275 316 24,000 -540 Descending Jacksonville Center
09:31AM 33.4800 -79.5781 33° Northeast 280 322 24,000  Level Jacksonville Center
09:32AM 33.5433 -79.5283 33° Northeast 280 322 24,000  Level Jacksonville Center
09:33AM 33.6067 -79.4761 34° Northeast 274 315 24,000 -420 Level Jacksonville Center
09:34AM 33.6719 -79.4261 33° Northeast 274 315 23,200 -960 Descending Jacksonville Center
09:35AM 33.7394 -79.3736 33° Northeast 274 315 22,100 -1,080 Descending Jacksonville Center
09:36AM 33.8086 -79.3158 35° Northeast 284 327 21,100 -1,020 Descending Jacksonville Center
09:37AM 33.8822 -79.2578 33° Northeast 296 341 20,100 -1,200 Descending Jacksonville Center
09:38AM 33.9556 -79.1972 34° Northeast 308 354 18,800 -1,260 Descending Jacksonville Center
09:39AM 34.0311 -79.1414 31° Northeast 308 354 17,600 -1,320 Descending Jacksonville Center
09:40AM 34.1619 -79.0328 34° Northeast 324 373 15,200 -1,440 Descending Washington Center
09:41AM 34.2325 -78.9753 34° Northeast 318 366 13,800 -1,320 Descending Washington Center
09:42AM 34.3072 -78.9156 33° Northeast 313 360 12,600 -1,200 Descending Washington Center
09:43AM 34.3669 -78.8653 35° Northeast 307 353 11,400 -1,080 Descending Washington Center
09:44AM 34.4436 -78.8078 32° Northeast 294 338 10,500 -1,140 Descending Washington Center
09:45AM 34.5094 -78.7700 25° Northeast 286 329 9,200 -1,440 Descending Washington Center
09:46AM 34.5858 -78.7225 27° Northeast 281 323 7,600 -1,440 Descending Washington Center
09:47AM 34.6453 -78.6819 29° Northeast 281 323 6,400 -1,380 Descending Washington Center
09:48AM 34.7131 -78.6417 26° Northeast 255 293 4,900 -1,380 Descending Washington Center
09:49AM 34.7658 -78.6108 26° Northeast 233 268 3,700 -960 Descending Washington Center
09:50AM 34.8147 -78.5772 29° Northeast 212 244 3,000 -600 Descending Washington Center
09:51AM 34.8594 -78.5433 32° Northeast 194 223 2,500 -540 Descending Washington Center